sensor_id;sensor_type;location;lat;lon;timestamp;temperature;humidity
19552;DHT22;9921;47.186;9.778;2023-04-25T00:00:21;10.20;99.90
19552;DHT22;9921;47.186;9.778;2023-04-25T00:02:48;10.20;99.90
19552;DHT22;9921;47.186;9.778;2023-04-25T00:05:15;10.20;99.90
19552;DHT22;9921;47.186;9.778;2023-04-25T00:07:42;10.20;99.90
19552;DHT22;9921;47.186;9.778;2023-04-25T00:10:09;10.20;99.90
19552;DHT22;9921;47.186;9.778;2023-04-25T00:12:37;10.00;99.90
19552;DHT22;9921;47.186;9.778;2023-04-25T00:15:05;9.80;99.90
19552;DHT22;9921;47.186;9.778;2023-04-25T00:17:33;9.80;99.90
19552;DHT22;9921;47.186;9.778;2023-04-25T00:20:01;9.70;99.90
19552;DHT22;9921;47.186;9.778;2023-04-25T00:22:30;9.60;99.90
19552;DHT22;9921;47.186;9.778;2023-04-25T00:24:57;9.60;99.90
19552;DHT22;9921;47.186;9.778;2023-04-25T00:27:25;9.60;99.90
19552;DHT22;9921;47.186;9.778;2023-04-25T00:29:52;9.60;99.90
19552;DHT22;9921;47.186;9.778;2023-04-25T00:32:19;9.60;99.90
19552;DHT22;9921;47.186;9.778;2023-04-25T00:34:47;9.70;99.90
19552;DHT22;9921;47.186;9.778;2023-04-25T00:37:14;9.80;99.90
19552;DHT22;9921;47.186;9.778;2023-04-25T00:39:41;9.80;99.90
19552;DHT22;9921;47.186;9.778;2023-04-25T00:42:08;9.90;99.90
19552;DHT22;9921;47.186;9.778;2023-04-25T00:44:35;10.00;99.90
19552;DHT22;9921;47.186;9.778;2023-04-25T00:47:03;10.00;99.90
19552;DHT22;9921;47.186;9.778;2023-04-25T00:49:31;10.10;99.90
19552;DHT22;9921;47.186;9.778;2023-04-25T00:51:59;10.10;99.90
19552;DHT22;9921;47.186;9.778;2023-04-25T00:54:26;10.10;99.90
19552;DHT22;9921;47.186;9.778;2023-04-25T00:56:53;10.10;99.90
19552;DHT22;9921;47.186;9.778;2023-04-25T00:59:20;10.20;99.90
19552;DHT22;9921;47.186;9.778;2023-04-25T01:01:47;10.10;99.90
19552;DHT22;9921;47.186;9.778;2023-04-25T01:04:14;9.90;99.90
19552;DHT22;9921;47.186;9.778;2023-04-25T01:06:41;9.60;99.90
19552;DHT22;9921;47.186;9.778;2023-04-25T01:09:09;9.40;99.90
19552;DHT22;9921;47.186;9.778;2023-04-25T01:11:36;9.30;99.90
19552;DHT22;9921;47.186;9.778;2023-04-25T01:14:05;9.30;99.90
19552;DHT22;9921;47.186;9.778;2023-04-25T01:16:32;9.50;99.90
19552;DHT22;9921;47.186;9.778;2023-04-25T01:18:59;9.30;99.90
19552;DHT22;9921;47.186;9.778;2023-04-25T01:21:27;9.30;99.90
19552;DHT22;9921;47.186;9.778;2023-04-25T01:23:55;9.40;99.90
19552;DHT22;9921;47.186;9.778;2023-04-25T01:26:22;9.50;99.90
19552;DHT22;9921;47.186;9.778;2023-04-25T01:28:50;9.60;99.90
19552;DHT22;9921;47.186;9.778;2023-04-25T01:31:17;9.60;99.90
19552;DHT22;9921;47.186;9.778;2023-04-25T01:33:45;9.60;99.90
19552;DHT22;9921;47.186;9.778;2023-04-25T01:36:12;9.60;99.90
19552;DHT22;9921;47.186;9.778;2023-04-25T01:38:41;9.50;99.90
19552;DHT22;9921;47.186;9.778;2023-04-25T01:41:09;9.50;99.90
19552;DHT22;9921;47.186;9.778;2023-04-25T01:43:36;9.50;99.90
19552;DHT22;9921;47.186;9.778;2023-04-25T01:46:03;9.50;99.90
19552;DHT22;9921;47.186;9.778;2023-04-25T01:48:30;9.60;99.90
19552;DHT22;9921;47.186;9.778;2023-04-25T01:50:57;9.60;99.90
19552;DHT22;9921;47.186;9.778;2023-04-25T01:53:24;9.40;99.90
19552;DHT22;9921;47.186;9.778;2023-04-25T01:55:53;9.30;99.90
19552;DHT22;9921;47.186;9.778;2023-04-25T01:58:20;9.20;99.90
19552;DHT22;9921;47.186;9.778;2023-04-25T02:00:46;9.20;99.90
19552;DHT22;9921;47.186;9.778;2023-04-25T02:03:13;9.30;99.90
19552;DHT22;9921;47.186;9.778;2023-04-25T02:05:40;9.30;99.90
19552;DHT22;9921;47.186;9.778;2023-04-25T02:08:08;9.30;99.90
19552;DHT22;9921;47.186;9.778;2023-04-25T02:10:36;9.40;99.90
19552;DHT22;9921;47.186;9.778;2023-04-25T02:13:04;9.40;99.90
19552;DHT22;9921;47.186;9.778;2023-04-25T02:15:31;9.40;99.90
19552;DHT22;9921;47.186;9.778;2023-04-25T02:17:58;9.50;99.90
19552;DHT22;9921;47.186;9.778;2023-04-25T02:20:26;9.50;99.90
19552;DHT22;9921;47.186;9.778;2023-04-25T02:22:53;9.10;99.90
19552;DHT22;9921;47.186;9.778;2023-04-25T02:25:20;9.10;99.90
19552;DHT22;9921;47.186;9.778;2023-04-25T02:27:47;9.10;99.90
19552;DHT22;9921;47.186;9.778;2023-04-25T02:30:15;9.20;99.90
19552;DHT22;9921;47.186;9.778;2023-04-25T02:32:42;9.20;99.90
19552;DHT22;9921;47.186;9.778;2023-04-25T02:35:09;9.20;99.90
19552;DHT22;9921;47.186;9.778;2023-04-25T02:37:37;8.90;99.90
19552;DHT22;9921;47.186;9.778;2023-04-25T02:40:06;8.80;99.90
19552;DHT22;9921;47.186;9.778;2023-04-25T02:42:33;8.70;99.90
19552;DHT22;9921;47.186;9.778;2023-04-25T02:45:00;8.60;99.90
19552;DHT22;9921;47.186;9.778;2023-04-25T02:47:29;8.40;99.90
19552;DHT22;9921;47.186;9.778;2023-04-25T02:49:56;8.40;99.90
19552;DHT22;9921;47.186;9.778;2023-04-25T02:52:22;8.30;99.90
19552;DHT22;9921;47.186;9.778;2023-04-25T02:54:50;8.30;99.90
19552;DHT22;9921;47.186;9.778;2023-04-25T02:57:17;8.30;99.90
19552;DHT22;9921;47.186;9.778;2023-04-25T02:59:44;8.30;99.90
19552;DHT22;9921;47.186;9.778;2023-04-25T03:02:10;8.40;99.90
19552;DHT22;9921;47.186;9.778;2023-04-25T03:04:39;8.40;99.90
19552;DHT22;9921;47.186;9.778;2023-04-25T03:07:06;8.30;99.90
19552;DHT22;9921;47.186;9.778;2023-04-25T03:09:33;8.40;99.90
19552;DHT22;9921;47.186;9.778;2023-04-25T03:12:00;8.50;99.90
19552;DHT22;9921;47.186;9.778;2023-04-25T03:14:27;8.40;99.90
19552;DHT22;9921;47.186;9.778;2023-04-25T03:16:53;8.30;99.90
19552;DHT22;9921;47.186;9.778;2023-04-25T03:19:20;8.20;99.90
19552;DHT22;9921;47.186;9.778;2023-04-25T03:21:48;8.20;99.90
19552;DHT22;9921;47.186;9.778;2023-04-25T03:24:15;8.00;99.90
19552;DHT22;9921;47.186;9.778;2023-04-25T03:26:42;8.00;99.90
19552;DHT22;9921;47.186;9.778;2023-04-25T03:29:09;7.90;99.90
19552;DHT22;9921;47.186;9.778;2023-04-25T03:31:36;7.90;99.90
19552;DHT22;9921;47.186;9.778;2023-04-25T03:34:02;7.90;99.90
19552;DHT22;9921;47.186;9.778;2023-04-25T03:36:29;7.90;99.90
19552;DHT22;9921;47.186;9.778;2023-04-25T03:38:57;7.90;99.90
19552;DHT22;9921;47.186;9.778;2023-04-25T03:41:24;7.90;99.90
19552;DHT22;9921;47.186;9.778;2023-04-25T03:43:51;7.90;99.90
19552;DHT22;9921;47.186;9.778;2023-04-25T03:46:18;7.90;99.90
19552;DHT22;9921;47.186;9.778;2023-04-25T03:48:45;7.90;99.90
19552;DHT22;9921;47.186;9.778;2023-04-25T03:51:12;8.00;99.90
19552;DHT22;9921;47.186;9.778;2023-04-25T03:53:39;8.00;99.90
19552;DHT22;9921;47.186;9.778;2023-04-25T03:56:07;8.00;99.90
19552;DHT22;9921;47.186;9.778;2023-04-25T03:58:35;8.00;99.90
19552;DHT22;9921;47.186;9.778;2023-04-25T04:01:01;8.10;99.90
19552;DHT22;9921;47.186;9.778;2023-04-25T04:03:32;8.10;99.90
19552;DHT22;9921;47.186;9.778;2023-04-25T04:05:59;8.20;99.90
19552;DHT22;9921;47.186;9.778;2023-04-25T04:08:26;8.20;99.90
19552;DHT22;9921;47.186;9.778;2023-04-25T04:10:53;8.30;99.90
19552;DHT22;9921;47.186;9.778;2023-04-25T04:13:21;8.30;99.90
19552;DHT22;9921;47.186;9.778;2023-04-25T04:15:48;8.30;99.90
19552;DHT22;9921;47.186;9.778;2023-04-25T04:18:16;8.30;99.90
19552;DHT22;9921;47.186;9.778;2023-04-25T04:20:42;8.20;99.90
19552;DHT22;9921;47.186;9.778;2023-04-25T04:23:09;8.20;99.90
19552;DHT22;9921;47.186;9.778;2023-04-25T04:25:36;8.20;99.90
19552;DHT22;9921;47.186;9.778;2023-04-25T04:28:03;8.20;99.90
19552;DHT22;9921;47.186;9.778;2023-04-25T04:30:33;8.20;99.90
19552;DHT22;9921;47.186;9.778;2023-04-25T04:33:02;8.30;99.90
19552;DHT22;9921;47.186;9.778;2023-04-25T04:35:29;8.40;99.90
19552;DHT22;9921;47.186;9.778;2023-04-25T04:37:56;8.50;99.90
19552;DHT22;9921;47.186;9.778;2023-04-25T04:40:22;8.60;99.90
19552;DHT22;9921;47.186;9.778;2023-04-25T04:42:51;8.50;99.90
19552;DHT22;9921;47.186;9.778;2023-04-25T04:45:18;8.40;99.90
19552;DHT22;9921;47.186;9.778;2023-04-25T04:47:47;8.50;99.90
19552;DHT22;9921;47.186;9.778;2023-04-25T04:50:15;8.40;99.90
19552;DHT22;9921;47.186;9.778;2023-04-25T04:52:42;8.40;99.90
19552;DHT22;9921;47.186;9.778;2023-04-25T04:55:09;8.40;99.90
19552;DHT22;9921;47.186;9.778;2023-04-25T04:57:36;8.30;99.90
19552;DHT22;9921;47.186;9.778;2023-04-25T05:00:05;8.40;99.90
19552;DHT22;9921;47.186;9.778;2023-04-25T05:02:36;8.40;99.90
19552;DHT22;9921;47.186;9.778;2023-04-25T05:05:05;8.50;99.90
19552;DHT22;9921;47.186;9.778;2023-04-25T05:07:32;8.70;99.90
19552;DHT22;9921;47.186;9.778;2023-04-25T05:09:59;8.80;99.90
19552;DHT22;9921;47.186;9.778;2023-04-25T05:12:25;8.90;99.90
19552;DHT22;9921;47.186;9.778;2023-04-25T05:14:52;8.90;99.90
19552;DHT22;9921;47.186;9.778;2023-04-25T05:17:19;8.70;99.90
19552;DHT22;9921;47.186;9.778;2023-04-25T05:19:46;8.60;99.90
19552;DHT22;9921;47.186;9.778;2023-04-25T05:22:14;8.60;99.90
19552;DHT22;9921;47.186;9.778;2023-04-25T05:24:41;8.70;99.90
19552;DHT22;9921;47.186;9.778;2023-04-25T05:27:08;8.80;99.90
19552;DHT22;9921;47.186;9.778;2023-04-25T05:29:35;9.00;99.90
19552;DHT22;9921;47.186;9.778;2023-04-25T05:32:02;9.10;99.90
19552;DHT22;9921;47.186;9.778;2023-04-25T05:34:28;8.80;99.90
19552;DHT22;9921;47.186;9.778;2023-04-25T05:36:55;8.70;99.90
19552;DHT22;9921;47.186;9.778;2023-04-25T05:39:23;8.50;99.90
19552;DHT22;9921;47.186;9.778;2023-04-25T05:41:50;8.50;99.90
19552;DHT22;9921;47.186;9.778;2023-04-25T05:44:17;8.30;99.90
19552;DHT22;9921;47.186;9.778;2023-04-25T05:46:44;8.20;99.90
19552;DHT22;9921;47.186;9.778;2023-04-25T05:49:11;8.20;99.90
19552;DHT22;9921;47.186;9.778;2023-04-25T05:51:38;8.40;99.90
19552;DHT22;9921;47.186;9.778;2023-04-25T05:54:05;8.60;99.90
19552;DHT22;9921;47.186;9.778;2023-04-25T05:56:33;8.80;99.90
19552;DHT22;9921;47.186;9.778;2023-04-25T05:59:00;8.90;99.90
19552;DHT22;9921;47.186;9.778;2023-04-25T06:01:26;9.00;99.90
19552;DHT22;9921;47.186;9.778;2023-04-25T06:03:53;9.20;99.90
19552;DHT22;9921;47.186;9.778;2023-04-25T06:06:20;9.20;99.90
19552;DHT22;9921;47.186;9.778;2023-04-25T06:08:47;9.20;99.90
19552;DHT22;9921;47.186;9.778;2023-04-25T06:11:14;9.00;99.90
19552;DHT22;9921;47.186;9.778;2023-04-25T06:13:42;8.80;99.90
19552;DHT22;9921;47.186;9.778;2023-04-25T06:16:09;8.70;99.90
19552;DHT22;9921;47.186;9.778;2023-04-25T06:18:36;8.70;99.90
19552;DHT22;9921;47.186;9.778;2023-04-25T06:21:03;8.60;99.90
19552;DHT22;9921;47.186;9.778;2023-04-25T06:23:30;8.60;99.90
19552;DHT22;9921;47.186;9.778;2023-04-25T06:25:57;8.60;99.90
19552;DHT22;9921;47.186;9.778;2023-04-25T06:28:24;8.70;99.90
19552;DHT22;9921;47.186;9.778;2023-04-25T06:30:52;8.80;99.90
19552;DHT22;9921;47.186;9.778;2023-04-25T06:33:19;8.80;99.90
19552;DHT22;9921;47.186;9.778;2023-04-25T06:35:46;8.90;99.90
19552;DHT22;9921;47.186;9.778;2023-04-25T06:38:13;9.00;99.90
19552;DHT22;9921;47.186;9.778;2023-04-25T06:40:41;9.00;99.90
19552;DHT22;9921;47.186;9.778;2023-04-25T06:43:08;8.90;99.90
19552;DHT22;9921;47.186;9.778;2023-04-25T06:45:35;9.00;99.90
19552;DHT22;9921;47.186;9.778;2023-04-25T06:48:03;8.90;99.90
19552;DHT22;9921;47.186;9.778;2023-04-25T06:50:30;9.00;99.90
19552;DHT22;9921;47.186;9.778;2023-04-25T06:52:57;8.90;99.90
19552;DHT22;9921;47.186;9.778;2023-04-25T06:55:24;8.80;99.90
19552;DHT22;9921;47.186;9.778;2023-04-25T06:57:51;8.70;99.90
19552;DHT22;9921;47.186;9.778;2023-04-25T07:00:18;8.60;99.90
19552;DHT22;9921;47.186;9.778;2023-04-25T07:02:45;8.70;99.90
19552;DHT22;9921;47.186;9.778;2023-04-25T07:05:14;8.60;99.90
19552;DHT22;9921;47.186;9.778;2023-04-25T07:07:41;8.60;99.90
19552;DHT22;9921;47.186;9.778;2023-04-25T07:10:08;8.60;99.90
19552;DHT22;9921;47.186;9.778;2023-04-25T07:12:35;8.60;99.90
19552;DHT22;9921;47.186;9.778;2023-04-25T07:15:02;8.60;99.90
19552;DHT22;9921;47.186;9.778;2023-04-25T07:17:32;8.60;99.90
19552;DHT22;9921;47.186;9.778;2023-04-25T07:19:59;8.70;99.90
19552;DHT22;9921;47.186;9.778;2023-04-25T07:22:27;8.80;99.90
19552;DHT22;9921;47.186;9.778;2023-04-25T07:24:54;9.10;99.90
19552;DHT22;9921;47.186;9.778;2023-04-25T07:27:21;9.30;99.90
19552;DHT22;9921;47.186;9.778;2023-04-25T07:29:48;9.60;99.90
19552;DHT22;9921;47.186;9.778;2023-04-25T07:32:15;9.80;99.90
19552;DHT22;9921;47.186;9.778;2023-04-25T07:34:42;9.90;99.90
19552;DHT22;9921;47.186;9.778;2023-04-25T07:37:08;9.80;99.90
19552;DHT22;9921;47.186;9.778;2023-04-25T07:39:37;9.70;99.90
19552;DHT22;9921;47.186;9.778;2023-04-25T07:42:04;9.90;99.90
19552;DHT22;9921;47.186;9.778;2023-04-25T07:44:33;10.10;99.90
19552;DHT22;9921;47.186;9.778;2023-04-25T07:47:04;9.90;99.90
19552;DHT22;9921;47.186;9.778;2023-04-25T07:49:32;9.90;99.90
19552;DHT22;9921;47.186;9.778;2023-04-25T07:51:59;9.90;99.90
19552;DHT22;9921;47.186;9.778;2023-04-25T07:54:26;10.00;99.90
19552;DHT22;9921;47.186;9.778;2023-04-25T07:56:54;9.90;99.90
19552;DHT22;9921;47.186;9.778;2023-04-25T07:59:21;9.90;99.90
19552;DHT22;9921;47.186;9.778;2023-04-25T08:01:48;9.70;99.90
19552;DHT22;9921;47.186;9.778;2023-04-25T08:04:15;9.60;99.90
19552;DHT22;9921;47.186;9.778;2023-04-25T08:06:42;9.70;99.90
19552;DHT22;9921;47.186;9.778;2023-04-25T08:09:09;9.60;99.90
19552;DHT22;9921;47.186;9.778;2023-04-25T08:11:36;9.60;99.90
19552;DHT22;9921;47.186;9.778;2023-04-25T08:14:05;9.60;99.90
19552;DHT22;9921;47.186;9.778;2023-04-25T08:16:32;9.60;99.90
19552;DHT22;9921;47.186;9.778;2023-04-25T08:18:59;9.60;99.90
19552;DHT22;9921;47.186;9.778;2023-04-25T08:21:26;9.60;99.90
19552;DHT22;9921;47.186;9.778;2023-04-25T08:23:53;9.60;99.90
19552;DHT22;9921;47.186;9.778;2023-04-25T08:26:20;9.70;99.90
19552;DHT22;9921;47.186;9.778;2023-04-25T08:28:47;9.80;99.90
19552;DHT22;9921;47.186;9.778;2023-04-25T08:31:15;9.80;99.90
19552;DHT22;9921;47.186;9.778;2023-04-25T08:33:42;9.90;99.90
19552;DHT22;9921;47.186;9.778;2023-04-25T08:36:09;9.90;99.90
19552;DHT22;9921;47.186;9.778;2023-04-25T08:38:35;10.00;99.90
19552;DHT22;9921;47.186;9.778;2023-04-25T08:41:03;10.10;99.90
19552;DHT22;9921;47.186;9.778;2023-04-25T08:43:32;10.30;99.90
19552;DHT22;9921;47.186;9.778;2023-04-25T08:46:01;10.30;99.90
19552;DHT22;9921;47.186;9.778;2023-04-25T08:48:32;10.40;99.90
19552;DHT22;9921;47.186;9.778;2023-04-25T08:51:01;10.40;99.90
19552;DHT22;9921;47.186;9.778;2023-04-25T08:53:32;10.50;99.90
19552;DHT22;9921;47.186;9.778;2023-04-25T08:56:00;10.60;99.90
19552;DHT22;9921;47.186;9.778;2023-04-25T08:58:28;10.80;99.90
19552;DHT22;9921;47.186;9.778;2023-04-25T09:00:55;10.80;99.90
19552;DHT22;9921;47.186;9.778;2023-04-25T09:03:22;10.50;99.90
19552;DHT22;9921;47.186;9.778;2023-04-25T09:05:51;10.20;99.90
19552;DHT22;9921;47.186;9.778;2023-04-25T09:08:18;10.20;99.90
19552;DHT22;9921;47.186;9.778;2023-04-25T09:10:45;10.10;99.90
19552;DHT22;9921;47.186;9.778;2023-04-25T09:13:13;10.10;99.90
19552;DHT22;9921;47.186;9.778;2023-04-25T09:15:47;10.30;99.90
19552;DHT22;9921;47.186;9.778;2023-04-25T09:18:22;10.50;99.90
19552;DHT22;9921;47.186;9.778;2023-04-25T09:20:52;10.60;99.90
19552;DHT22;9921;47.186;9.778;2023-04-25T09:23:20;10.60;99.90
19552;DHT22;9921;47.186;9.778;2023-04-25T09:25:47;10.60;99.90
19552;DHT22;9921;47.186;9.778;2023-04-25T09:28:14;10.60;99.90
19552;DHT22;9921;47.186;9.778;2023-04-25T09:30:42;10.70;99.90
19552;DHT22;9921;47.186;9.778;2023-04-25T09:33:10;10.60;99.90
19552;DHT22;9921;47.186;9.778;2023-04-25T09:35:39;10.50;99.90
19552;DHT22;9921;47.186;9.778;2023-04-25T09:38:12;10.50;99.90
19552;DHT22;9921;47.186;9.778;2023-04-25T09:40:40;10.60;99.90
19552;DHT22;9921;47.186;9.778;2023-04-25T09:43:10;10.60;99.90
19552;DHT22;9921;47.186;9.778;2023-04-25T09:45:44;10.60;99.90
19552;DHT22;9921;47.186;9.778;2023-04-25T09:48:17;10.80;99.90
19552;DHT22;9921;47.186;9.778;2023-04-25T09:50:44;10.90;99.90
19552;DHT22;9921;47.186;9.778;2023-04-25T09:53:13;11.00;99.90
19552;DHT22;9921;47.186;9.778;2023-04-25T09:55:41;11.20;99.90
19552;DHT22;9921;47.186;9.778;2023-04-25T09:58:11;11.40;99.90
19552;DHT22;9921;47.186;9.778;2023-04-25T10:00:41;11.70;99.90
19552;DHT22;9921;47.186;9.778;2023-04-25T10:03:08;12.00;99.90
19552;DHT22;9921;47.186;9.778;2023-04-25T10:05:35;12.50;99.90
19552;DHT22;9921;47.186;9.778;2023-04-25T10:08:03;13.40;99.90
19552;DHT22;9921;47.186;9.778;2023-04-25T10:10:32;14.00;99.90
19552;DHT22;9921;47.186;9.778;2023-04-25T10:13:03;13.80;99.90
19552;DHT22;9921;47.186;9.778;2023-04-25T10:15:32;13.40;99.90
19552;DHT22;9921;47.186;9.778;2023-04-25T10:18:00;13.20;99.90
19552;DHT22;9921;47.186;9.778;2023-04-25T10:20:28;14.40;99.90
19552;DHT22;9921;47.186;9.778;2023-04-25T10:22:58;15.50;99.90
19552;DHT22;9921;47.186;9.778;2023-04-25T10:25:30;17.20;99.90
19552;DHT22;9921;47.186;9.778;2023-04-25T10:27:59;19.20;99.90
19552;DHT22;9921;47.186;9.778;2023-04-25T10:30:27;19.50;99.90
19552;DHT22;9921;47.186;9.778;2023-04-25T10:32:55;20.70;99.90
19552;DHT22;9921;47.186;9.778;2023-04-25T10:35:25;21.40;99.90
19552;DHT22;9921;47.186;9.778;2023-04-25T10:38:14;21.00;99.90
19552;DHT22;9921;47.186;9.778;2023-04-25T10:40:40;20.30;99.90
19552;DHT22;9921;47.186;9.778;2023-04-25T10:43:37;20.20;99.90
19552;DHT22;9921;47.186;9.778;2023-04-25T10:46:16;19.20;99.90
19552;DHT22;9921;47.186;9.778;2023-04-25T10:48:48;18.50;99.90
19552;DHT22;9921;47.186;9.778;2023-04-25T10:51:20;18.90;99.90
19552;DHT22;9921;47.186;9.778;2023-04-25T10:53:56;20.50;99.90
19552;DHT22;9921;47.186;9.778;2023-04-25T10:56:25;21.60;99.90
19552;DHT22;9921;47.186;9.778;2023-04-25T10:59:03;22.20;99.90
19552;DHT22;9921;47.186;9.778;2023-04-25T11:01:36;22.20;99.90
19552;DHT22;9921;47.186;9.778;2023-04-25T11:04:03;21.40;99.90
19552;DHT22;9921;47.186;9.778;2023-04-25T11:06:37;21.50;99.90
19552;DHT22;9921;47.186;9.778;2023-04-25T11:09:11;22.10;99.90
19552;DHT22;9921;47.186;9.778;2023-04-25T11:11:39;22.50;98.60
19552;DHT22;9921;47.186;9.778;2023-04-25T11:14:07;23.10;99.90
19552;DHT22;9921;47.186;9.778;2023-04-25T11:16:34;24.30;99.40
19552;DHT22;9921;47.186;9.778;2023-04-25T11:19:01;25.70;96.30
19552;DHT22;9921;47.186;9.778;2023-04-25T11:21:29;27.20;93.80
19552;DHT22;9921;47.186;9.778;2023-04-25T11:23:59;28.40;87.70
19552;DHT22;9921;47.186;9.778;2023-04-25T11:26:26;27.30;81.60
19552;DHT22;9921;47.186;9.778;2023-04-25T11:28:57;25.90;80.50
19552;DHT22;9921;47.186;9.778;2023-04-25T11:31:26;24.60;81.40
19552;DHT22;9921;47.186;9.778;2023-04-25T11:33:53;23.60;88.70
19552;DHT22;9921;47.186;9.778;2023-04-25T11:36:22;23.00;87.70
19552;DHT22;9921;47.186;9.778;2023-04-25T11:38:51;22.20;89.90
19552;DHT22;9921;47.186;9.778;2023-04-25T11:41:18;21.00;91.40
19552;DHT22;9921;47.186;9.778;2023-04-25T11:43:46;20.30;93.40
19552;DHT22;9921;47.186;9.778;2023-04-25T11:46:12;19.50;92.90
19552;DHT22;9921;47.186;9.778;2023-04-25T11:48:41;18.80;93.70
19552;DHT22;9921;47.186;9.778;2023-04-25T11:51:09;18.20;96.70
19552;DHT22;9921;47.186;9.778;2023-04-25T11:53:36;17.60;97.80
19552;DHT22;9921;47.186;9.778;2023-04-25T11:56:09;17.00;99.90
19552;DHT22;9921;47.186;9.778;2023-04-25T11:58:53;16.50;99.90
19552;DHT22;9921;47.186;9.778;2023-04-25T12:01:26;16.00;99.90
19552;DHT22;9921;47.186;9.778;2023-04-25T12:03:54;15.90;99.90
19552;DHT22;9921;47.186;9.778;2023-04-25T12:06:21;15.60;99.90
19552;DHT22;9921;47.186;9.778;2023-04-25T12:09:03;15.20;99.90
19552;DHT22;9921;47.186;9.778;2023-04-25T12:11:31;15.10;99.90
19552;DHT22;9921;47.186;9.778;2023-04-25T12:14:02;15.10;99.90
19552;DHT22;9921;47.186;9.778;2023-04-25T12:16:39;15.10;99.90
19552;DHT22;9921;47.186;9.778;2023-04-25T12:19:07;15.10;99.90
19552;DHT22;9921;47.186;9.778;2023-04-25T12:21:34;15.10;99.90
19552;DHT22;9921;47.186;9.778;2023-04-25T12:24:11;15.30;99.90
19552;DHT22;9921;47.186;9.778;2023-04-25T12:26:48;15.60;99.90
19552;DHT22;9921;47.186;9.778;2023-04-25T12:29:17;16.60;99.90
19552;DHT22;9921;47.186;9.778;2023-04-25T12:31:43;17.90;99.90
19552;DHT22;9921;47.186;9.778;2023-04-25T12:34:13;18.70;99.90
19552;DHT22;9921;47.186;9.778;2023-04-25T12:36:40;19.90;99.90
19552;DHT22;9921;47.186;9.778;2023-04-25T12:39:07;20.60;99.80
19552;DHT22;9921;47.186;9.778;2023-04-25T12:41:34;20.70;98.40
19552;DHT22;9921;47.186;9.778;2023-04-25T12:44:01;20.50;96.60
19552;DHT22;9921;47.186;9.778;2023-04-25T12:46:28;20.30;97.90
19552;DHT22;9921;47.186;9.778;2023-04-25T12:48:55;20.00;96.50
19552;DHT22;9921;47.186;9.778;2023-04-25T12:51:24;19.70;96.50
19552;DHT22;9921;47.186;9.778;2023-04-25T12:53:53;19.60;95.20
19552;DHT22;9921;47.186;9.778;2023-04-25T12:56:20;19.20;97.30
19552;DHT22;9921;47.186;9.778;2023-04-25T12:58:47;19.00;97.80
19552;DHT22;9921;47.186;9.778;2023-04-25T13:01:14;18.80;99.30
19552;DHT22;9921;47.186;9.778;2023-04-25T13:03:41;18.60;99.40
19552;DHT22;9921;47.186;9.778;2023-04-25T13:06:08;18.20;99.40
19552;DHT22;9921;47.186;9.778;2023-04-25T13:08:36;18.00;99.20
19552;DHT22;9921;47.186;9.778;2023-04-25T13:11:03;18.00;99.90
19552;DHT22;9921;47.186;9.778;2023-04-25T13:13:30;17.80;99.90
19552;DHT22;9921;47.186;9.778;2023-04-25T13:15:59;17.40;99.80
19552;DHT22;9921;47.186;9.778;2023-04-25T13:18:27;17.20;99.70
19552;DHT22;9921;47.186;9.778;2023-04-25T13:20:54;17.10;99.90
19552;DHT22;9921;47.186;9.778;2023-04-25T13:23:21;16.70;98.70
19552;DHT22;9921;47.186;9.778;2023-04-25T13:25:49;16.30;99.90
19552;DHT22;9921;47.186;9.778;2023-04-25T13:28:16;16.10;99.90
19552;DHT22;9921;47.186;9.778;2023-04-25T13:30:43;15.60;99.90
19552;DHT22;9921;47.186;9.778;2023-04-25T13:33:10;15.50;99.90
19552;DHT22;9921;47.186;9.778;2023-04-25T13:35:38;15.40;99.90
19552;DHT22;9921;47.186;9.778;2023-04-25T13:38:05;15.40;99.90
19552;DHT22;9921;47.186;9.778;2023-04-25T13:40:32;15.40;99.90
19552;DHT22;9921;47.186;9.778;2023-04-25T13:43:00;15.10;99.90
19552;DHT22;9921;47.186;9.778;2023-04-25T13:45:27;15.10;99.90
19552;DHT22;9921;47.186;9.778;2023-04-25T13:47:54;15.10;99.90
19552;DHT22;9921;47.186;9.778;2023-04-25T13:50:21;15.10;99.90
19552;DHT22;9921;47.186;9.778;2023-04-25T13:52:48;15.00;99.90
19552;DHT22;9921;47.186;9.778;2023-04-25T13:55:15;14.70;99.90
19552;DHT22;9921;47.186;9.778;2023-04-25T13:57:41;14.60;99.90
19552;DHT22;9921;47.186;9.778;2023-04-25T14:00:12;14.60;99.90
19552;DHT22;9921;47.186;9.778;2023-04-25T14:02:39;14.50;99.90
19552;DHT22;9921;47.186;9.778;2023-04-25T14:05:06;14.40;99.90
19552;DHT22;9921;47.186;9.778;2023-04-25T14:07:35;14.30;99.90
19552;DHT22;9921;47.186;9.778;2023-04-25T14:10:02;14.20;99.90
19552;DHT22;9921;47.186;9.778;2023-04-25T14:12:30;14.00;99.90
19552;DHT22;9921;47.186;9.778;2023-04-25T14:14:57;13.60;99.90
19552;DHT22;9921;47.186;9.778;2023-04-25T14:17:25;13.50;99.90
19552;DHT22;9921;47.186;9.778;2023-04-25T14:19:51;13.40;99.90
19552;DHT22;9921;47.186;9.778;2023-04-25T14:22:18;13.20;99.90
19552;DHT22;9921;47.186;9.778;2023-04-25T14:24:45;13.10;99.90
19552;DHT22;9921;47.186;9.778;2023-04-25T14:27:12;13.00;99.90
19552;DHT22;9921;47.186;9.778;2023-04-25T14:29:39;13.10;99.90
19552;DHT22;9921;47.186;9.778;2023-04-25T14:32:06;13.20;99.90
19552;DHT22;9921;47.186;9.778;2023-04-25T14:34:35;13.10;99.90
19552;DHT22;9921;47.186;9.778;2023-04-25T14:37:02;13.10;99.90
19552;DHT22;9921;47.186;9.778;2023-04-25T14:39:29;13.10;99.90
19552;DHT22;9921;47.186;9.778;2023-04-25T14:41:56;13.20;99.90
19552;DHT22;9921;47.186;9.778;2023-04-25T14:44:23;13.20;99.90
19552;DHT22;9921;47.186;9.778;2023-04-25T14:46:50;13.20;99.90
19552;DHT22;9921;47.186;9.778;2023-04-25T14:49:17;13.20;99.90
19552;DHT22;9921;47.186;9.778;2023-04-25T14:51:45;13.20;99.90
19552;DHT22;9921;47.186;9.778;2023-04-25T14:54:12;13.20;99.90
19552;DHT22;9921;47.186;9.778;2023-04-25T14:56:39;13.00;99.90
19552;DHT22;9921;47.186;9.778;2023-04-25T14:59:06;12.90;99.90
19552;DHT22;9921;47.186;9.778;2023-04-25T15:01:33;12.90;99.90
19552;DHT22;9921;47.186;9.778;2023-04-25T15:04:00;12.90;99.90
19552;DHT22;9921;47.186;9.778;2023-04-25T15:06:27;12.80;99.90
19552;DHT22;9921;47.186;9.778;2023-04-25T15:08:57;12.90;99.90
19552;DHT22;9921;47.186;9.778;2023-04-25T15:11:24;13.00;99.90
19552;DHT22;9921;47.186;9.778;2023-04-25T15:13:51;13.20;99.90
19552;DHT22;9921;47.186;9.778;2023-04-25T15:16:18;13.20;99.90
19552;DHT22;9921;47.186;9.778;2023-04-25T15:18:45;13.20;99.90
19552;DHT22;9921;47.186;9.778;2023-04-25T15:21:11;13.30;99.90
19552;DHT22;9921;47.186;9.778;2023-04-25T15:23:38;13.30;99.90
19552;DHT22;9921;47.186;9.778;2023-04-25T15:26:07;13.30;99.90
19552;DHT22;9921;47.186;9.778;2023-04-25T15:28:34;13.30;99.90
19552;DHT22;9921;47.186;9.778;2023-04-25T15:31:01;13.30;99.90
19552;DHT22;9921;47.186;9.778;2023-04-25T15:33:28;13.30;99.90
19552;DHT22;9921;47.186;9.778;2023-04-25T15:35:55;13.30;99.90
19552;DHT22;9921;47.186;9.778;2023-04-25T15:38:23;13.40;99.90
19552;DHT22;9921;47.186;9.778;2023-04-25T15:40:51;13.40;99.90
19552;DHT22;9921;47.186;9.778;2023-04-25T15:43:19;13.30;99.90
19552;DHT22;9921;47.186;9.778;2023-04-25T15:45:46;13.40;99.90
19552;DHT22;9921;47.186;9.778;2023-04-25T15:48:13;13.50;99.90
19552;DHT22;9921;47.186;9.778;2023-04-25T15:50:40;13.50;99.90
19552;DHT22;9921;47.186;9.778;2023-04-25T15:53:07;13.30;99.90
19552;DHT22;9921;47.186;9.778;2023-04-25T15:55:34;13.30;99.90
19552;DHT22;9921;47.186;9.778;2023-04-25T15:58:01;13.30;99.90